Time;durP1;ratioP1;P1;durP2;ratioP2;P2;SDS_P1;SDS_P2;PMS_P1;PMS_P2;Temp;Humidity;BMP_temperature;BMP_pressure;BME280_temperature;BME280_humidity;BME280_pressure;Samples;Min_cycle;Max_cycle;Signal;HPM_P1;HPM_P2
2022/12/29 00:01:35;;;;;;;8.77;6.90;;;9.30;99.90;;;;;;5103122;28;20054;-68
2022/12/29 00:04:01;;;;;;;9.75;6.55;;;9.30;99.90;;;;;;5102337;28;20069;-66
2022/12/29 00:06:26;;;;;;;9.90;7.70;;;9.30;99.90;;;;;;5097132;28;20066;-68
2022/12/29 00:08:52;;;;;;;9.90;7.50;;;9.40;99.90;;;;;;5081551;28;20130;-65
2022/12/29 00:11:23;;;;;;;9.88;7.32;;;9.30;99.90;;;;;;5081424;28;20047;-65
2022/12/29 00:16:34;;;;;;;10.70;7.72;;;9.30;99.90;;;;;;5103164;28;20047;-68
2022/12/29 00:19:00;;;;;;;13.48;8.32;;;9.40;99.90;;;;;;5101477;28;20332;-68
2022/12/29 00:35:35;;;;;;;13.98;8.85;;;9.30;99.90;;;;;;5085759;28;20048;-70
2022/12/29 00:46:17;;;;;;;11.05;8.18;;;9.50;99.90;;;;;;5099342;28;20040;-68
2022/12/29 00:51:27;;;;;;;12.98;8.77;;;9.60;99.90;;;;;;5089676;28;20484;-68
2022/12/29 00:53:52;;;;;;;12.57;8.48;;;9.40;99.90;;;;;;5106278;28;20044;-66
2022/12/29 00:56:18;;;;;;;11.82;8.65;;;9.50;99.90;;;;;;5086753;28;20052;-68
2022/12/29 00:58:43;;;;;;;12.05;7.90;;;9.40;99.90;;;;;;5086632;28;20044;-68
2022/12/29 01:01:09;;;;;;;10.98;8.00;;;9.50;99.90;;;;;;5105701;28;20124;-69
2022/12/29 01:03:36;;;;;;;11.45;7.13;;;9.40;99.90;;;;;;5086919;28;20470;-67
2022/12/29 01:06:04;;;;;;;12.18;7.50;;;9.60;99.90;;;;;;5107071;28;20044;-67
2022/12/29 01:08:30;;;;;;;9.45;7.35;;;9.40;99.90;;;;;;5106781;28;20035;-68
2022/12/29 01:10:59;;;;;;;9.35;6.90;;;9.40;99.90;;;;;;5078702;28;20055;-68
2022/12/29 01:13:24;;;;;;;10.00;6.43;;;9.40;99.90;;;;;;5102360;28;20551;-67
2022/12/29 01:15:55;;;;;;;10.30;7.07;;;9.50;99.90;;;;;;5110236;28;20039;-66
2022/12/29 01:18:21;;;;;;;9.75;6.97;;;9.60;99.90;;;;;;5099451;28;20043;-68
2022/12/29 01:20:47;;;;;;;10.43;7.40;;;9.60;99.90;;;;;;5078351;28;20388;-67
2022/12/29 01:23:12;;;;;;;8.43;6.53;;;9.50;99.90;;;;;;5089803;28;20043;-66
2022/12/29 01:25:38;;;;;;;9.18;5.53;;;9.60;99.90;;;;;;5100545;28;20526;-67
2022/12/29 01:28:04;;;;;;;10.80;6.47;;;9.50;99.90;;;;;;5105531;28;20031;-67
2022/12/29 01:30:29;;;;;;;7.57;5.78;;;9.60;99.90;;;;;;5084922;28;20125;-67
2022/12/29 01:32:55;;;;;;;11.50;5.97;;;9.50;99.90;;;;;;5106081;28;20039;-68
2022/12/29 01:35:21;;;;;;;8.77;5.85;;;9.50;99.90;;;;;;5108329;28;20137;-68
2022/12/29 01:37:46;;;;;;;9.95;6.00;;;9.40;99.90;;;;;;5109329;28;20032;-67
2022/12/29 01:40:12;;;;;;;7.13;5.30;;;9.40;99.90;;;;;;5083568;28;20040;-68
2022/12/29 01:42:37;;;;;;;6.93;4.85;;;9.50;99.90;;;;;;5108758;28;20035;-66
2022/12/29 01:45:15;;;;;;;6.68;5.38;;;9.50;99.90;;;;;;5091543;28;20040;-66
2022/12/29 01:47:50;;;;;;;8.85;5.35;;;9.50;99.90;;;;;;5085516;28;20052;-67
2022/12/29 01:50:26;;;;;;;7.80;4.85;;;9.60;99.90;;;;;;5100293;28;20040;-66
2022/12/29 01:53:02;;;;;;;9.43;4.95;;;9.50;99.90;;;;;;5100554;28;20031;-65
2022/12/29 01:55:31;;;;;;;6.72;4.90;;;9.50;99.90;;;;;;5107457;28;20050;-65
2022/12/29 01:58:00;;;;;;;5.75;4.68;;;9.40;99.90;;;;;;5098472;28;20732;-65
2022/12/29 02:00:26;;;;;;;5.80;5.00;;;9.50;99.90;;;;;;5087349;28;20043;-68
2022/12/29 02:02:53;;;;;;;6.90;4.68;;;9.60;99.90;;;;;;5080841;28;20063;-67
2022/12/29 02:05:38;;;;;;;7.15;4.88;;;9.50;99.90;;;;;;5098446;28;20032;-66
2022/12/29 02:08:04;;;;;;;7.45;4.90;;;9.50;99.90;;;;;;5103725;28;20055;-66
2022/12/29 02:10:32;;;;;;;5.53;4.13;;;9.50;99.90;;;;;;5085297;28;20494;-65
2022/12/29 02:12:57;;;;;;;6.68;4.72;;;9.50;99.90;;;;;;5097850;28;20074;-65
2022/12/29 02:15:50;;;;;;;6.55;4.07;;;9.50;99.90;;;;;;5101853;28;20031;-67
2022/12/29 02:18:37;;;;;;;5.18;3.95;;;9.60;99.90;;;;;;5101112;28;20051;-66
2022/12/29 02:21:22;;;;;;;6.68;4.28;;;9.60;99.90;;;;;;5098079;28;20185;-65
2022/12/29 02:24:18;;;;;;;5.80;4.63;;;9.50;99.90;;;;;;5099665;28;20053;-65
2022/12/29 02:26:46;;;;;;;5.03;3.95;;;9.70;99.90;;;;;;5099530;28;20031;-64
2022/12/29 02:29:33;;;;;;;7.13;4.18;;;9.60;99.90;;;;;;5104001;28;20032;-64
2022/12/29 02:32:05;;;;;;;6.15;3.78;;;9.60;99.90;;;;;;5072023;28;20490;-65
2022/12/29 02:34:57;;;;;;;7.57;3.63;;;9.70;99.90;;;;;;5101785;28;20040;-65
2022/12/29 02:37:38;;;;;;;5.20;3.30;;;9.70;99.90;;;;;;5104725;28;20805;-65
2022/12/29 02:40:03;;;;;;;;;;;9.70;99.90;;;;;;5104271;28;20386;-64
2022/12/29 02:42:49;;;;;;;8.50;3.53;;;9.60;99.90;;;;;;5093341;28;19920;-64
2022/12/29 02:45:48;;;;;;;6.18;4.07;;;9.70;99.90;;;;;;5074980;28;20506;-67
2022/12/29 02:48:38;;;;;;;4.85;3.60;;;9.70;99.90;;;;;;5101179;28;20067;-65
2022/12/29 02:51:09;;;;;;;6.47;4.30;;;9.60;99.90;;;;;;5098600;28;20044;-66
2022/12/29 02:56:20;;;;;;;4.90;3.60;;;9.60;99.90;;;;;;5093977;28;20078;-66
2022/12/29 02:58:46;;;;;;;7.65;4.30;;;9.60;99.90;;;;;;5100406;28;20459;-68
2022/12/29 03:01:21;;;;;;;4.80;3.22;;;9.60;99.90;;;;;;5102824;28;20428;-66
2022/12/29 03:04:11;;;;;;;5.97;3.90;;;9.70;99.90;;;;;;5106037;28;20051;-66
2022/12/29 03:07:08;;;;;;;5.43;3.30;;;9.60;99.90;;;;;;5105985;28;20073;-66
2022/12/29 03:09:49;;;;;;;4.68;3.72;;;9.50;99.90;;;;;;5086397;28;20128;-66
2022/12/29 03:12:19;;;;;;;;;;;9.70;99.90;;;;;;5107110;28;20092;-66
2022/12/29 03:17:53;;;;;;;5.25;3.17;;;9.50;99.90;;;;;;5107397;28;20614;-66
2022/12/29 03:20:26;;;;;;;7.63;3.40;;;9.60;99.90;;;;;;5086011;28;20170;-66
2022/12/29 03:22:55;;;;;;;3.53;2.97;;;9.50;99.90;;;;;;5102357;28;20427;-66
2022/12/29 03:25:38;;;;;;;5.30;3.00;;;9.60;99.90;;;;;;5098821;28;20897;-66
2022/12/29 03:28:09;;;;;;;3.95;3.17;;;9.60;99.90;;;;;;5101039;28;20434;-64
2022/12/29 03:30:36;;;;;;;3.50;2.92;;;9.60;99.90;;;;;;5104101;28;20042;-65
2022/12/29 03:33:06;;;;;;;4.20;2.78;;;9.60;99.90;;;;;;5106010;28;20055;-66
2022/12/29 03:35:35;;;;;;;4.05;2.67;;;9.60;99.90;;;;;;5085535;28;20051;-65
2022/12/29 03:38:14;;;;;;;3.30;2.70;;;9.60;99.90;;;;;;5102887;28;20058;-66
2022/12/29 03:40:43;;;;;;;3.55;2.50;;;9.60;99.90;;;;;;5107152;28;20044;-65
2022/12/29 03:43:10;;;;;;;3.63;2.30;;;9.60;99.90;;;;;;5102854;28;20375;-64
2022/12/29 03:45:36;;;;;;;3.97;2.55;;;9.60;99.90;;;;;;5103250;28;20122;-66
2022/12/29 03:48:01;;;;;;;2.92;2.60;;;9.60;99.90;;;;;;5107434;28;20498;-65
2022/12/29 03:50:27;;;;;;;4.95;2.20;;;9.60;99.90;;;;;;5101227;28;20118;-65
2022/12/29 03:52:52;;;;;;;7.55;2.40;;;9.60;99.90;;;;;;5077651;28;20063;-64
2022/12/29 03:55:18;;;;;;;4.28;2.20;;;9.60;99.90;;;;;;5103449;28;20036;-65
2022/12/29 03:57:43;;;;;;;4.93;2.30;;;9.60;99.90;;;;;;5104397;28;20059;-64
2022/12/29 04:00:10;;;;;;;4.30;2.30;;;9.60;99.90;;;;;;5100589;28;20044;-65
2022/12/29 04:02:36;;;;;;;5.05;2.40;;;9.50;99.90;;;;;;5079269;28;20051;-65
2022/12/29 04:05:01;;;;;;;5.15;2.00;;;9.50;99.90;;;;;;5104752;28;20483;-65
2022/12/29 04:07:27;;;;;;;2.95;2.00;;;9.50;99.90;;;;;;5101916;28;20164;-65
2022/12/29 04:09:52;;;;;;;6.80;2.22;;;9.60;99.90;;;;;;5106839;28;20040;-66
2022/12/29 04:12:18;;;;;;;4.35;1.90;;;9.50;99.90;;;;;;5107113;28;20092;-66
2022/12/29 04:14:43;;;;;;;4.95;2.45;;;9.50;99.90;;;;;;5105288;28;20031;-67
2022/12/29 04:17:09;;;;;;;4.47;2.60;;;9.50;99.90;;;;;;5102476;28;20059;-66
2022/12/29 04:19:34;;;;;;;5.53;1.98;;;9.40;99.90;;;;;;5098479;28;20035;-67
2022/12/29 04:22:00;;;;;;;3.38;1.98;;;9.40;99.90;;;;;;5085145;28;20032;-66
2022/12/29 04:24:25;;;;;;;3.33;1.50;;;9.30;99.90;;;;;;5082832;28;20093;-66
2022/12/29 04:26:51;;;;;;;3.60;1.10;;;9.30;99.90;;;;;;5075660;28;20396;-67
2022/12/29 04:29:17;;;;;;;6.57;1.77;;;9.20;99.90;;;;;;5100564;28;22111;-66
2022/12/29 04:31:42;;;;;;;0.98;0.88;;;9.20;99.90;;;;;;5106085;28;20027;-66
2022/12/29 04:34:08;;;;;;;1.92;0.90;;;9.10;99.90;;;;;;5102940;28;20043;-65
2022/12/29 04:36:34;;;;;;;2.13;0.77;;;9.10;99.90;;;;;;5104618;28;20043;-68
2022/12/29 04:38:59;;;;;;;1.02;0.70;;;9.00;99.90;;;;;;5083975;28;20119;-66
2022/12/29 04:41:25;;;;;;;1.63;0.80;;;8.90;99.90;;;;;;5088850;28;20042;-66
2022/12/29 04:43:51;;;;;;;1.75;0.80;;;8.90;99.90;;;;;;5105129;28;20032;-66
2022/12/29 04:46:17;;;;;;;1.67;0.70;;;8.80;99.90;;;;;;5108601;28;20426;-66
2022/12/29 04:48:42;;;;;;;1.58;0.95;;;8.80;99.90;;;;;;5086962;28;20150;-66
2022/12/29 04:51:08;;;;;;;3.92;0.98;;;8.60;99.90;;;;;;5102718;28;20036;-66
2022/12/29 04:53:33;;;;;;;6.07;1.35;;;8.60;99.90;;;;;;5100693;28;20043;-65
2022/12/29 04:55:59;;;;;;;4.18;1.50;;;8.70;99.90;;;;;;5104409;28;20039;-66
2022/12/29 04:58:25;;;;;;;2.85;1.60;;;8.70;99.90;;;;;;5106506;28;20448;-66
2022/12/29 05:00:51;;;;;;;3.92;1.65;;;8.70;99.90;;;;;;5084454;28;20419;-66
2022/12/29 05:03:17;;;;;;;3.83;1.77;;;8.70;99.90;;;;;;5099562;28;20150;-66
2022/12/29 05:05:42;;;;;;;7.65;1.98;;;8.80;99.90;;;;;;5105209;28;20584;-66
2022/12/29 05:08:08;;;;;;;7.40;1.90;;;8.90;99.90;;;;;;5108298;28;20055;-64
2022/12/29 05:10:33;;;;;;;4.65;1.35;;;8.80;99.90;;;;;;5100943;28;20040;-67
2022/12/29 05:12:59;;;;;;;5.68;1.40;;;8.80;99.90;;;;;;5101795;28;20533;-64
2022/12/29 05:15:25;;;;;;;5.68;1.45;;;8.80;99.90;;;;;;5087964;28;20499;-66
2022/12/29 05:17:50;;;;;;;7.43;1.77;;;8.70;99.90;;;;;;5083097;28;20056;-65
2022/12/29 05:20:16;;;;;;;9.57;1.65;;;8.70;99.90;;;;;;5098925;28;20040;-65
2022/12/29 05:22:42;;;;;;;7.03;1.33;;;8.70;99.90;;;;;;5102058;28;20046;-67
2022/12/29 05:25:08;;;;;;;8.75;1.52;;;8.70;99.90;;;;;;5099100;28;20088;-65
2022/12/29 05:27:34;;;;;;;5.00;1.40;;;8.60;99.90;;;;;;5081842;28;20032;-65
2022/12/29 05:30:00;;;;;;;9.07;1.50;;;8.60;99.90;;;;;;5084873;28;20380;-65
2022/12/29 05:32:25;;;;;;;7.90;1.60;;;8.70;99.90;;;;;;5098516;28;20127;-63
2022/12/29 05:34:51;;;;;;;10.32;1.42;;;8.50;99.90;;;;;;5112236;28;20118;-66
2022/12/29 05:37:16;;;;;;;5.88;1.25;;;8.60;99.90;;;;;;5108061;28;20138;-65
2022/12/29 05:39:42;;;;;;;8.85;1.27;;;8.60;99.90;;;;;;5107711;28;20218;-66
2022/12/29 05:42:08;;;;;;;6.93;1.30;;;8.60;99.90;;;;;;5105581;28;20073;-65
2022/12/29 05:44:34;;;;;;;4.63;1.45;;;8.60;99.90;;;;;;5101957;28;20035;-65
2022/12/29 05:46:59;;;;;;;7.82;1.60;;;8.70;99.90;;;;;;5113232;28;20143;-65
2022/12/29 05:49:25;;;;;;;6.72;1.67;;;8.60;99.90;;;;;;5106500;28;20028;-64
2022/12/29 05:51:50;;;;;;;7.30;1.40;;;8.50;99.90;;;;;;5107069;28;20047;-65
2022/12/29 05:54:16;;;;;;;5.75;1.50;;;8.60;99.90;;;;;;5106570;28;20033;-63
2022/12/29 05:56:41;;;;;;;6.97;1.40;;;8.60;99.90;;;;;;5106743;28;20101;-65
2022/12/29 05:59:07;;;;;;;3.85;1.30;;;8.60;99.90;;;;;;5099481;28;20035;-65
2022/12/29 06:01:34;;;;;;;2.90;1.02;;;8.60;99.90;;;;;;5100274;28;20036;-64
2022/12/29 06:03:59;;;;;;;6.60;1.85;;;8.50;99.90;;;;;;5086512;28;20559;-65
2022/12/29 06:06:25;;;;;;;5.85;1.75;;;8.50;99.90;;;;;;5103208;28;20209;-66
2022/12/29 06:08:51;;;;;;;7.28;2.00;;;8.50;99.90;;;;;;5106365;28;20062;-64
2022/12/29 06:11:17;;;;;;;3.72;1.42;;;8.60;99.90;;;;;;5103524;28;20402;-66
2022/12/29 06:13:42;;;;;;;10.80;1.95;;;8.60;99.90;;;;;;5103223;28;20039;-65
2022/12/29 06:16:08;;;;;;;5.65;1.40;;;8.70;99.90;;;;;;5101605;28;20483;-64
2022/12/29 06:18:34;;;;;;;5.45;1.60;;;8.80;99.90;;;;;;5103680;28;20035;-65
2022/12/29 06:21:03;;;;;;;5.40;1.73;;;8.70;99.90;;;;;;5096817;28;20039;-65
2022/12/29 06:23:29;;;;;;;5.25;1.55;;;8.70;99.90;;;;;;5103704;28;20076;-65
2022/12/29 06:25:55;;;;;;;7.20;1.80;;;8.90;99.90;;;;;;5101072;28;20482;-65
2022/12/29 06:28:20;;;;;;;4.72;1.80;;;8.80;99.90;;;;;;5103399;28;20035;-64
2022/12/29 06:30:47;;;;;;;6.07;2.05;;;8.80;99.90;;;;;;5104197;28;20077;-65
2022/12/29 06:33:13;;;;;;;7.53;1.52;;;8.80;99.90;;;;;;5099931;28;20444;-65
2022/12/29 06:35:39;;;;;;;8.15;1.75;;;8.70;99.90;;;;;;5105075;28;20034;-65
2022/12/29 06:38:05;;;;;;;10.55;1.77;;;8.90;99.90;;;;;;5102689;28;20080;-64
2022/12/29 06:40:31;;;;;;;10.50;2.10;;;8.90;99.90;;;;;;5091941;28;20050;-65
2022/12/29 06:42:56;;;;;;;4.18;1.48;;;8.80;99.90;;;;;;5108548;28;20039;-63
2022/12/29 06:45:22;;;;;;;7.45;1.65;;;8.90;99.90;;;;;;5108358;28;20032;-64
2022/12/29 06:47:47;;;;;;;9.00;1.58;;;8.90;99.90;;;;;;5107165;28;20123;-65
2022/12/29 06:50:13;;;;;;;7.50;1.90;;;8.90;99.90;;;;;;5103427;28;20112;-64
2022/12/29 06:52:39;;;;;;;7.05;1.92;;;8.90;99.90;;;;;;5107793;28;20470;-65
2022/12/29 06:55:04;;;;;;;11.48;1.60;;;8.80;99.90;;;;;;5107733;28;20096;-63
2022/12/29 06:57:30;;;;;;;10.48;1.77;;;8.90;99.90;;;;;;5107863;28;20039;-64
2022/12/29 06:59:56;;;;;;;9.32;1.98;;;8.90;99.90;;;;;;5104181;28;20058;-64
2022/12/29 07:02:22;;;;;;;9.88;1.58;;;8.90;99.90;;;;;;5082834;28;20035;-65
2022/12/29 07:04:47;;;;;;;9.65;2.10;;;8.90;99.90;;;;;;5099090;28;20051;-64
2022/12/29 07:07:13;;;;;;;8.57;1.50;;;8.90;99.90;;;;;;5083475;28;20028;-64
2022/12/29 07:09:39;;;;;;;9.90;1.35;;;8.90;99.90;;;;;;5105662;28;20108;-65
2022/12/29 07:12:04;;;;;;;9.63;1.58;;;8.90;99.90;;;;;;5080278;28;20039;-66
2022/12/29 07:14:30;;;;;;;8.60;1.92;;;8.90;99.90;;;;;;5092947;28;20036;-64
2022/12/29 07:16:56;;;;;;;8.73;1.63;;;9.00;99.90;;;;;;5099146;28;20059;-65
2022/12/29 07:19:21;;;;;;;9.38;1.63;;;8.80;99.90;;;;;;5100827;28;20103;-66
2022/12/29 07:21:47;;;;;;;6.60;1.40;;;9.00;99.90;;;;;;5096369;28;20057;-66
2022/12/29 07:24:12;;;;;;;7.10;1.58;;;8.80;99.90;;;;;;5104734;28;20547;-65
2022/12/29 07:26:38;;;;;;;6.47;1.60;;;8.90;99.90;;;;;;5101157;28;20043;-64
2022/12/29 07:29:04;;;;;;;12.30;1.75;;;8.90;99.90;;;;;;5097261;28;20043;-65
2022/12/29 07:31:30;;;;;;;8.88;2.05;;;8.90;99.90;;;;;;5099544;28;20036;-64
2022/12/29 07:33:56;;;;;;;8.18;1.65;;;8.90;99.90;;;;;;5098788;28;20126;-66
2022/12/29 07:36:21;;;;;;;6.15;1.70;;;8.90;99.90;;;;;;5090884;28;20036;-66
2022/12/29 07:38:47;;;;;;;8.55;1.42;;;9.00;99.90;;;;;;5095178;28;20050;-65
2022/12/29 07:41:12;;;;;;;9.93;2.20;;;9.00;99.90;;;;;;5099286;28;20043;-65
2022/12/29 07:43:38;;;;;;;8.75;1.77;;;9.10;99.90;;;;;;5106511;28;20063;-64
2022/12/29 07:46:03;;;;;;;6.43;1.30;;;9.00;99.90;;;;;;5090764;28;20031;-66
2022/12/29 07:48:29;;;;;;;8.70;1.75;;;9.10;99.90;;;;;;5105254;28;20092;-64
2022/12/29 07:50:55;;;;;;;6.47;1.65;;;9.20;99.90;;;;;;5105379;28;20574;-65
2022/12/29 07:53:20;;;;;;;10.52;1.85;;;9.10;99.90;;;;;;5109249;28;20046;-63
2022/12/29 07:55:46;;;;;;;9.70;1.95;;;9.10;99.90;;;;;;5107372;28;20073;-63
2022/12/29 07:58:11;;;;;;;9.18;1.92;;;9.10;99.90;;;;;;5108852;28;20554;-61
2022/12/29 08:00:38;;;;;;;9.25;1.67;;;9.00;99.90;;;;;;5111248;28;20043;-65
2022/12/29 08:03:04;;;;;;;12.73;1.95;;;9.10;99.90;;;;;;5109140;28;20470;-63
2022/12/29 08:05:32;;;;;;;6.88;1.60;;;9.00;99.90;;;;;;5109330;28;20040;-63
2022/12/29 08:07:57;;;;;;;6.82;1.55;;;9.10;99.90;;;;;;5102883;28;20054;-62
2022/12/29 08:10:23;;;;;;;9.52;1.92;;;9.00;99.90;;;;;;5101224;28;20483;-62
2022/12/29 08:12:49;;;;;;;11.48;1.88;;;9.10;99.90;;;;;;5106347;28;20027;-64
2022/12/29 08:15:14;;;;;;;9.68;1.83;;;9.00;99.90;;;;;;5107874;28;20065;-64
2022/12/29 08:17:40;;;;;;;11.30;2.47;;;9.10;99.90;;;;;;5086145;28;20048;-63
2022/12/29 08:20:07;;;;;;;10.15;1.83;;;9.20;99.90;;;;;;5109465;28;20040;-63
2022/12/29 08:22:32;;;;;;;9.13;1.83;;;9.20;99.90;;;;;;5114096;28;20156;-62
2022/12/29 08:24:58;;;;;;;12.13;2.13;;;9.10;99.90;;;;;;5089582;28;20040;-62
2022/12/29 08:27:23;;;;;;;10.35;1.95;;;9.10;99.90;;;;;;5087411;28;20059;-62
2022/12/29 08:29:49;;;;;;;7.80;2.42;;;9.00;99.90;;;;;;5113091;28;20039;-65
2022/12/29 08:32:15;;;;;;;13.15;1.95;;;9.20;99.90;;;;;;5111854;28;20035;-62
2022/12/29 08:34:41;;;;;;;7.32;1.48;;;9.20;99.90;;;;;;5114123;28;20040;-63
2022/12/29 08:37:06;;;;;;;13.38;2.63;;;9.20;99.90;;;;;;5103492;28;20151;-62
2022/12/29 08:39:32;;;;;;;9.38;2.03;;;9.30;99.90;;;;;;5099952;28;20031;-64
2022/12/29 08:41:57;;;;;;;9.80;2.90;;;9.30;99.90;;;;;;5093588;28;20119;-64
2022/12/29 08:44:23;;;;;;;10.90;1.80;;;9.40;99.90;;;;;;5111517;28;20062;-62
2022/12/29 08:46:48;;;;;;;14.70;2.88;;;9.40;99.90;;;;;;5114697;28;20036;-64
2022/12/29 08:49:14;;;;;;;11.95;3.53;;;9.50;99.90;;;;;;5111885;28;20035;-65
2022/12/29 08:51:40;;;;;;;10.57;2.17;;;9.40;99.90;;;;;;5089854;28;20047;-65
2022/12/29 08:54:05;;;;;;;15.10;2.35;;;9.50;99.90;;;;;;5107268;28;20551;-64
2022/12/29 08:56:31;;;;;;;12.77;1.90;;;9.60;99.90;;;;;;5109348;28;20554;-64
2022/12/29 08:58:57;;;;;;;7.25;1.67;;;9.50;99.90;;;;;;5111444;28;20050;-63
2022/12/29 09:01:22;;;;;;;12.13;1.90;;;9.60;99.90;;;;;;5106651;28;20560;-64
2022/12/29 09:03:48;;;;;;;16.70;2.85;;;9.60;99.90;;;;;;5111120;28;20027;-65
2022/12/29 09:06:15;;;;;;;9.30;1.85;;;9.60;99.90;;;;;;5107837;28;20067;-63
2022/12/29 09:08:41;;;;;;;9.90;1.88;;;9.70;99.90;;;;;;5109219;28;20032;-65
2022/12/29 09:11:15;;;;;;;13.90;1.88;;;9.80;99.90;;;;;;5097615;28;20585;-62
2022/12/29 09:13:41;;;;;;;13.73;2.15;;;9.80;99.90;;;;;;5098176;28;20038;-63
2022/12/29 09:16:07;;;;;;;10.23;1.88;;;9.80;99.90;;;;;;5096620;28;20484;-62
2022/12/29 09:18:32;;;;;;;12.50;2.30;;;9.80;99.90;;;;;;5098770;28;20035;-62
2022/12/29 09:20:59;;;;;;;11.32;2.17;;;9.70;99.90;;;;;;5101816;28;20075;-65
2022/12/29 09:23:26;;;;;;;12.57;2.80;;;9.50;99.90;;;;;;5103491;28;20031;-64
2022/12/29 09:25:52;;;;;;;11.45;1.92;;;9.30;99.90;;;;;;5106874;28;20036;-63
2022/12/29 09:28:18;;;;;;;9.32;2.05;;;9.10;99.90;;;;;;5109816;28;20034;-63
2022/12/29 09:30:43;;;;;;;10.52;1.75;;;9.20;99.90;;;;;;5104356;28;20122;-63
2022/12/29 09:33:09;;;;;;;11.95;1.92;;;9.20;99.90;;;;;;5110965;28;20040;-62
2022/12/29 09:35:34;;;;;;;7.30;2.20;;;9.20;99.90;;;;;;5099922;28;20151;-63
2022/12/29 09:38:00;;;;;;;9.27;1.67;;;9.20;99.90;;;;;;5092063;28;20036;-64
2022/12/29 09:40:31;;;;;;;9.15;1.38;;;9.10;99.90;;;;;;5100729;28;20044;-63
2022/12/29 09:43:42;;;;;;;7.65;1.70;;;9.20;99.90;;;;;;5098412;28;20047;-63
2022/12/29 09:46:23;;;;;;;8.48;1.88;;;9.20;99.90;;;;;;5110687;28;20047;-63
2022/12/29 09:49:03;;;;;;;7.80;1.42;;;9.20;99.90;;;;;;5099316;28;20048;-63
2022/12/29 09:51:31;;;;;;;13.63;2.15;;;9.30;99.90;;;;;;5102223;28;20088;-62
2022/12/29 09:54:01;;;;;;;13.15;2.25;;;9.40;99.90;;;;;;5112428;28;20054;-64
2022/12/29 09:56:27;;;;;;;12.32;2.15;;;9.40;99.90;;;;;;5113042;28;20035;-63
2022/12/29 09:59:10;;;;;;;6.47;1.73;;;9.40;99.90;;;;;;5082356;28;20058;-63
2022/12/29 10:01:38;;;;;;;6.30;1.73;;;9.40;99.90;;;;;;5112747;28;20527;-62
2022/12/29 10:04:05;;;;;;;7.45;1.75;;;9.30;99.90;;;;;;5100869;28;20123;-62
2022/12/29 10:06:52;;;;;;;7.45;2.40;;;9.30;99.90;;;;;;5109500;28;20032;-62
2022/12/29 10:09:37;;;;;;;10.63;2.78;;;8.90;99.90;;;;;;5112127;28;20063;-64
2022/12/29 10:12:24;;;;;;;13.18;2.33;;;8.60;99.90;;;;;;5108214;28;20043;-62
2022/12/29 10:15:08;;;;;;;7.15;1.65;;;8.50;99.90;;;;;;5111344;28;20034;-64
2022/12/29 10:17:44;;;;;;;16.45;2.63;;;8.40;99.90;;;;;;5108312;28;20069;-63
2022/12/29 10:20:48;;;;;;;11.10;2.20;;;8.30;99.90;;;;;;5106695;28;20043;-62
2022/12/29 10:23:32;;;;;;;8.60;2.00;;;8.20;99.90;;;;;;5109453;28;20040;-63
2022/12/29 10:26:00;;;;;;;14.63;2.97;;;8.20;99.90;;;;;;5083809;28;20042;-63
2022/12/29 10:28:45;;;;;;;10.68;2.10;;;8.10;99.90;;;;;;5107299;28;20384;-63
2022/12/29 10:31:24;;;;;;;16.83;2.92;;;8.20;99.90;;;;;;5105989;28;20036;-64
2022/12/29 10:34:00;;;;;;;8.43;2.05;;;8.10;99.90;;;;;;5083889;28;20074;-63
2022/12/29 10:36:41;;;;;;;14.43;2.50;;;8.10;99.90;;;;;;5101313;28;20096;-64
2022/12/29 10:39:26;;;;;;;9.75;2.30;;;8.20;99.90;;;;;;5112201;28;20065;-64
2022/12/29 10:42:24;;;;;;;14.18;2.67;;;8.10;99.90;;;;;;5102545;28;20048;-63
2022/12/29 10:44:49;;;;;;;9.48;2.72;;;8.00;99.90;;;;;;5091298;28;20607;-64
2022/12/29 10:47:20;;;;;;;15.40;2.50;;;8.00;99.90;;;;;;5107243;28;20028;-64
2022/12/29 10:49:48;;;;;;;12.00;2.75;;;8.10;99.90;;;;;;5111870;28;20063;-63
2022/12/29 10:52:16;;;;;;;8.35;2.20;;;8.10;99.90;;;;;;5086987;28;20035;-64
2022/12/29 10:54:54;;;;;;;11.65;2.90;;;8.20;99.90;;;;;;5079395;28;20036;-63
2022/12/29 10:57:32;;;;;;;10.18;2.45;;;8.20;99.90;;;;;;5103731;28;20043;-63
2022/12/29 10:59:58;;;;;;;13.27;2.22;;;8.30;99.90;;;;;;5095015;28;20062;-63
2022/12/29 11:02:46;;;;;;;8.68;2.55;;;8.20;99.90;;;;;;5102135;28;20055;-65
2022/12/29 11:05:27;;;;;;;11.98;2.20;;;8.20;99.90;;;;;;5094592;28;20044;-65
2022/12/29 11:07:57;;;;;;;8.80;1.83;;;8.30;99.90;;;;;;5100363;28;20489;-65
2022/12/29 11:10:40;;;;;;;10.57;2.40;;;8.30;99.90;;;;;;5109214;28;20055;-64
2022/12/29 11:13:14;;;;;;;10.30;2.45;;;8.30;99.90;;;;;;5109162;28;20087;-64
2022/12/29 11:15:42;;;;;;;9.57;2.33;;;8.20;99.90;;;;;;5107072;28;20040;-65
2022/12/29 11:18:26;;;;;;;8.52;2.42;;;8.10;99.90;;;;;;5105427;28;20047;-66
2022/12/29 11:20:54;;;;;;;10.38;2.50;;;8.10;99.90;;;;;;5106111;28;20044;-66
2022/12/29 11:23:37;;;;;;;17.85;3.38;;;8.30;99.90;;;;;;5090048;28;20123;-65
2022/12/29 11:26:22;;;;;;;16.58;2.85;;;8.40;99.90;;;;;;5104678;28;20036;-65
2022/12/29 11:29:08;;;;;;;13.38;2.72;;;8.10;99.90;;;;;;5101798;28;20046;-66
2022/12/29 11:31:41;;;;;;;16.42;3.88;;;8.10;99.90;;;;;;5109894;28;20119;-65
2022/12/29 11:34:07;;;;;;;12.13;2.78;;;8.40;99.90;;;;;;5096718;28;20036;-67
2022/12/29 11:36:34;;;;;;;12.02;2.88;;;8.10;99.90;;;;;;5103328;28;20185;-67
2022/12/29 11:39:00;;;;;;;14.65;3.20;;;8.50;99.90;;;;;;5097062;28;20687;-67
2022/12/29 11:41:29;;;;;;;16.50;3.22;;;8.40;99.90;;;;;;5085474;28;20040;-66
2022/12/29 11:44:05;;;;;;;10.02;2.83;;;8.60;99.90;;;;;;5101410;28;20367;-67
2022/12/29 11:46:36;;;;;;;13.43;3.10;;;8.20;99.90;;;;;;5093923;28;20043;-67
2022/12/29 11:49:04;;;;;;;13.45;3.47;;;8.50;99.90;;;;;;5073515;28;20047;-67
2022/12/29 11:51:37;;;;;;;13.55;3.15;;;8.70;99.90;;;;;;5090700;28;20399;-66
2022/12/29 11:54:03;;;;;;;20.83;4.32;;;8.90;99.90;;;;;;5070181;28;20086;-68
2022/12/29 11:56:43;;;;;;;19.73;3.28;;;8.50;99.90;;;;;;5094542;28;20065;-66
2022/12/29 11:59:27;;;;;;;20.40;3.45;;;8.80;99.90;;;;;;5084135;28;20687;-65
2022/12/29 12:01:53;;;;;;;12.77;3.70;;;8.40;99.90;;;;;;5110948;28;20039;-67
2022/12/29 12:04:24;;;;;;;11.35;3.30;;;8.60;99.90;;;;;;5105612;28;20111;-66
2022/12/29 12:07:12;;;;;;;14.35;3.42;;;8.30;99.90;;;;;;5082068;28;20044;-69
2022/12/29 12:09:54;;;;;;;19.38;4.18;;;8.60;99.90;;;;;;5081356;28;20072;-64
2022/12/29 12:12:43;;;;;;;15.15;4.50;;;8.30;99.90;;;;;;5106626;28;20046;-65
2022/12/29 12:15:22;;;;;;;15.75;3.08;;;8.50;99.90;;;;;;5114356;28;20044;-66
2022/12/29 12:18:16;;;;;;;23.45;3.55;;;8.20;99.90;;;;;;5096688;28;20055;-66
2022/12/29 12:20:48;;;;;;;21.92;4.20;;;8.40;99.90;;;;;;5087834;28;20052;-67
2022/12/29 12:23:30;;;;;;;15.18;3.83;;;8.30;99.90;;;;;;5113304;28;20032;-65
2022/12/29 12:25:59;;;;;;;15.57;3.30;;;8.40;99.90;;;;;;5105006;28;20070;-66
2022/12/29 12:28:56;;;;;;;18.45;4.00;;;8.30;99.90;;;;;;5110423;28;20046;-67
2022/12/29 12:31:39;;;;;;;13.23;3.20;;;8.30;99.90;;;;;;5094007;28;20047;-67
2022/12/29 12:34:13;;;;;;;19.27;3.50;;;8.50;99.90;;;;;;5111787;28;20378;-66
2022/12/29 12:37:06;;;;;;;11.75;3.15;;;8.70;99.90;;;;;;5110327;28;20044;-66
2022/12/29 12:39:54;;;;;;;20.35;3.33;;;8.90;99.90;;;;;;5113073;28;20081;-65
2022/12/29 12:42:25;;;;;;;16.42;2.83;;;8.80;99.90;;;;;;5112322;28;20035;-65
2022/12/29 12:45:28;;;;;;;17.20;2.90;;;8.60;99.90;;;;;;5101903;28;20406;-67
2022/12/29 12:48:12;;;;;;;16.90;3.33;;;8.60;99.90;;;;;;5113318;28;20036;-66
2022/12/29 12:51:12;;;;;;;18.13;2.85;;;8.60;99.90;;;;;;5111079;28;20720;-64
2022/12/29 12:54:01;;;;;;;;;;;8.50;99.90;;;;;;5108419;28;20089;-66
2022/12/29 12:56:38;;;;;;;22.42;2.83;;;8.30;99.90;;;;;;5102328;28;20437;-65
2022/12/29 12:59:21;;;;;;;18.33;2.70;;;8.40;99.90;;;;;;5107710;28;20140;-65
2022/12/29 13:02:15;;;;;;;16.15;2.80;;;8.30;99.90;;;;;;5084846;28;20166;-65
2022/12/29 13:04:59;;;;;;;11.90;3.08;;;8.30;99.90;;;;;;5113227;28;20107;-65
2022/12/29 13:07:37;;;;;;;24.40;3.67;;;8.20;99.90;;;;;;5113010;28;20040;-64
2022/12/29 13:10:22;;;;;;;13.07;2.63;;;8.20;99.90;;;;;;5113573;28;20368;-64
2022/12/29 13:13:16;;;;;;;13.10;2.67;;;8.10;99.90;;;;;;5111168;28;20043;-64
2022/12/29 13:15:51;;;;;;;16.88;2.83;;;8.10;99.90;;;;;;5102643;28;20136;-63
2022/12/29 13:18:45;;;;;;;18.92;3.08;;;8.10;99.90;;;;;;5114050;28;20047;-64
2022/12/29 13:21:30;;;;;;;17.67;2.88;;;8.10;99.90;;;;;;5110625;28;20055;-65
2022/12/29 13:24:15;;;;;;;18.15;3.25;;;8.00;99.90;;;;;;5113005;28;20071;-63
2022/12/29 13:27:03;;;;;;;19.52;3.53;;;8.10;99.90;;;;;;5113176;28;20067;-62
2022/12/29 13:30:00;;;;;;;11.48;2.78;;;8.20;99.90;;;;;;5112483;28;20051;-64
2022/12/29 13:32:32;;;;;;;14.98;2.95;;;8.20;99.90;;;;;;5112708;28;20441;-62
2022/12/29 13:35:15;;;;;;;17.80;2.80;;;8.10;99.90;;;;;;5112495;28;20047;-63
2022/12/29 13:38:03;;;;;;;11.10;2.45;;;8.10;99.90;;;;;;5090633;28;20605;-63
2022/12/29 13:40:34;;;;;;;13.18;2.75;;;8.10;99.90;;;;;;5075331;28;20098;-64
2022/12/29 13:43:01;;;;;;;14.70;1.98;;;8.10;99.90;;;;;;5110250;28;20056;-62
2022/12/29 13:45:31;;;;;;;11.35;2.28;;;8.10;99.90;;;;;;5113206;28;20746;-62
2022/12/29 13:48:16;;;;;;;18.63;2.60;;;8.00;99.90;;;;;;5113457;28;20088;-61